sensor_id;sensor_type;location;lat;lon;timestamp;pressure;altitude;pressure_sealevel;temperature;humidity
85000;BME280;75320;51.608;7.952;2024-03-02T00:00:49;99568.59;;;7.24;73.57
85000;BME280;75320;51.608;7.952;2024-03-02T00:03:17;99554.72;;;7.09;74.06
85000;BME280;75320;51.608;7.952;2024-03-02T00:05:42;99551.78;;;7.33;73.31
85000;BME280;75320;51.608;7.952;2024-03-02T00:08:08;99546.38;;;7.34;73.65
85000;BME280;75320;51.608;7.952;2024-03-02T00:10:38;99563.00;;;7.27;73.53
85000;BME280;75320;51.608;7.952;2024-03-02T00:13:12;99557.34;;;7.23;73.46
85000;BME280;75320;51.608;7.952;2024-03-02T00:18:25;99555.16;;;7.27;73.56
85000;BME280;75320;51.608;7.952;2024-03-02T00:20:54;99537.09;;;7.17;72.96
85000;BME280;75320;51.608;7.952;2024-03-02T00:23:22;99552.53;;;7.27;73.31
85000;BME280;75320;51.608;7.952;2024-03-02T00:25:54;99555.06;;;7.20;73.70
85000;BME280;75320;51.608;7.952;2024-03-02T00:31:07;99563.13;;;7.19;73.45
85000;BME280;75320;51.608;7.952;2024-03-02T00:33:40;99564.53;;;7.07;74.14
85000;BME280;75320;51.608;7.952;2024-03-02T00:36:08;99560.84;;;7.16;72.84
85000;BME280;75320;51.608;7.952;2024-03-02T00:38:34;99564.63;;;7.13;73.04
85000;BME280;75320;51.608;7.952;2024-03-02T00:41:05;99565.19;;;7.09;73.35
85000;BME280;75320;51.608;7.952;2024-03-02T00:43:45;99561.84;;;7.15;73.08
85000;BME280;75320;51.608;7.952;2024-03-02T00:46:11;99552.97;;;7.16;72.66
85000;BME280;75320;51.608;7.952;2024-03-02T00:48:39;99551.69;;;7.26;71.75
85000;BME280;75320;51.608;7.952;2024-03-02T00:51:07;99548.56;;;7.16;72.56
85000;BME280;75320;51.608;7.952;2024-03-02T00:53:33;99554.63;;;7.17;72.71
85000;BME280;75320;51.608;7.952;2024-03-02T00:55:59;99546.38;;;7.20;71.96
85000;BME280;75320;51.608;7.952;2024-03-02T00:58:25;99552.88;;;7.24;72.26
85000;BME280;75320;51.608;7.952;2024-03-02T01:00:51;99534.19;;;7.12;72.78
85000;BME280;75320;51.608;7.952;2024-03-02T01:03:16;99555.59;;;7.16;72.39
85000;BME280;75320;51.608;7.952;2024-03-02T01:05:42;99556.31;;;7.10;72.01
85000;BME280;75320;51.608;7.952;2024-03-02T01:08:09;99554.44;;;7.04;72.73
85000;BME280;75320;51.608;7.952;2024-03-02T01:10:34;99552.09;;;7.09;72.22
85000;BME280;75320;51.608;7.952;2024-03-02T01:13:00;99551.28;;;7.08;72.54
85000;BME280;75320;51.608;7.952;2024-03-02T01:15:25;99550.00;;;7.04;72.69
85000;BME280;75320;51.608;7.952;2024-03-02T01:17:50;99549.38;;;7.02;72.49
85000;BME280;75320;51.608;7.952;2024-03-02T01:20:16;99547.00;;;7.22;71.12
85000;BME280;75320;51.608;7.952;2024-03-02T01:22:41;99541.22;;;7.12;71.95
85000;BME280;75320;51.608;7.952;2024-03-02T01:25:08;99539.97;;;7.08;71.68
85000;BME280;75320;51.608;7.952;2024-03-02T01:27:35;99527.13;;;6.98;71.91
85000;BME280;75320;51.608;7.952;2024-03-02T01:30:01;99538.06;;;7.02;72.50
85000;BME280;75320;51.608;7.952;2024-03-02T01:32:27;99522.69;;;6.98;72.25
85000;BME280;75320;51.608;7.952;2024-03-02T01:34:53;99524.59;;;7.05;72.42
85000;BME280;75320;51.608;7.952;2024-03-02T01:37:20;99533.56;;;6.95;72.22
85000;BME280;75320;51.608;7.952;2024-03-02T01:39:45;99505.53;;;6.81;73.02
85000;BME280;75320;51.608;7.952;2024-03-02T01:42:10;99525.88;;;6.94;72.54
85000;BME280;75320;51.608;7.952;2024-03-02T01:44:36;99528.31;;;6.95;72.23
85000;BME280;75320;51.608;7.952;2024-03-02T01:47:02;99519.44;;;6.96;71.80
85000;BME280;75320;51.608;7.952;2024-03-02T01:49:27;99479.78;;;6.70;72.89
85000;BME280;75320;51.608;7.952;2024-03-02T01:51:53;99512.41;;;6.97;72.78
85000;BME280;75320;51.608;7.952;2024-03-02T01:54:18;99500.38;;;7.03;73.13
85000;BME280;75320;51.608;7.952;2024-03-02T01:56:44;99461.81;;;6.82;72.28
85000;BME280;75320;51.608;7.952;2024-03-02T01:59:13;99502.38;;;7.01;72.68
85000;BME280;75320;51.608;7.952;2024-03-02T02:01:39;99491.31;;;7.20;72.10
85000;BME280;75320;51.608;7.952;2024-03-02T02:04:04;99476.97;;;7.16;71.91
85000;BME280;75320;51.608;7.952;2024-03-02T02:06:31;99484.16;;;7.28;71.77
85000;BME280;75320;51.608;7.952;2024-03-02T02:08:57;99486.63;;;7.30;71.85
85000;BME280;75320;51.608;7.952;2024-03-02T02:11:22;99471.53;;;7.32;71.86
85000;BME280;75320;51.608;7.952;2024-03-02T02:13:49;99478.38;;;7.33;71.87
85000;BME280;75320;51.608;7.952;2024-03-02T02:16:14;99472.16;;;7.34;71.24
85000;BME280;75320;51.608;7.952;2024-03-02T02:18:40;99470.56;;;7.18;72.23
85000;BME280;75320;51.608;7.952;2024-03-02T02:21:05;99482.22;;;7.16;71.98
85000;BME280;75320;51.608;7.952;2024-03-02T02:23:30;99467.84;;;7.12;72.07
85000;BME280;75320;51.608;7.952;2024-03-02T02:25:56;99460.78;;;7.27;71.88
85000;BME280;75320;51.608;7.952;2024-03-02T02:28:21;99468.59;;;7.06;72.52
85000;BME280;75320;51.608;7.952;2024-03-02T02:30:46;99476.28;;;6.92;73.02
85000;BME280;75320;51.608;7.952;2024-03-02T02:33:12;99473.66;;;6.78;73.35
85000;BME280;75320;51.608;7.952;2024-03-02T02:35:39;99473.75;;;6.70;73.57
85000;BME280;75320;51.608;7.952;2024-03-02T02:38:05;99474.19;;;6.59;74.04
85000;BME280;75320;51.608;7.952;2024-03-02T02:40:32;99474.00;;;6.60;74.30
85000;BME280;75320;51.608;7.952;2024-03-02T02:42:58;99474.63;;;6.62;74.22
85000;BME280;75320;51.608;7.952;2024-03-02T02:45:26;99474.97;;;6.59;73.46
85000;BME280;75320;51.608;7.952;2024-03-02T02:47:51;99466.69;;;6.41;74.50
85000;BME280;75320;51.608;7.952;2024-03-02T02:50:17;99477.78;;;6.58;74.40
85000;BME280;75320;51.608;7.952;2024-03-02T02:52:43;99463.78;;;6.36;73.98
85000;BME280;75320;51.608;7.952;2024-03-02T02:55:10;99467.03;;;6.38;74.59
85000;BME280;75320;51.608;7.952;2024-03-02T02:57:37;99477.38;;;6.32;75.04
85000;BME280;75320;51.608;7.952;2024-03-02T03:00:13;99463.66;;;6.15;75.13
85000;BME280;75320;51.608;7.952;2024-03-02T03:02:44;99470.03;;;6.12;75.47
85000;BME280;75320;51.608;7.952;2024-03-02T03:05:11;99463.00;;;6.13;76.45
85000;BME280;75320;51.608;7.952;2024-03-02T03:07:36;99460.00;;;6.01;75.97
85000;BME280;75320;51.608;7.952;2024-03-02T03:10:03;99471.31;;;6.16;76.39
85000;BME280;75320;51.608;7.952;2024-03-02T03:12:29;99464.81;;;6.27;74.90
85000;BME280;75320;51.608;7.952;2024-03-02T03:14:55;99469.44;;;6.25;75.27
85000;BME280;75320;51.608;7.952;2024-03-02T03:17:25;99466.47;;;6.28;75.19
85000;BME280;75320;51.608;7.952;2024-03-02T03:19:50;99467.56;;;6.34;74.95
85000;BME280;75320;51.608;7.952;2024-03-02T03:22:16;99460.63;;;6.41;75.47
85000;BME280;75320;51.608;7.952;2024-03-02T03:24:41;99455.47;;;6.47;74.97
85000;BME280;75320;51.608;7.952;2024-03-02T03:27:07;99452.13;;;6.53;74.79
85000;BME280;75320;51.608;7.952;2024-03-02T03:29:32;99455.94;;;6.51;75.03
85000;BME280;75320;51.608;7.952;2024-03-02T03:31:57;99461.16;;;6.51;75.48
85000;BME280;75320;51.608;7.952;2024-03-02T03:34:23;99464.25;;;6.54;74.72
85000;BME280;75320;51.608;7.952;2024-03-02T03:36:48;99468.03;;;6.52;75.05
85000;BME280;75320;51.608;7.952;2024-03-02T03:39:13;99465.78;;;6.49;75.53
85000;BME280;75320;51.608;7.952;2024-03-02T03:41:43;99465.03;;;6.40;74.96
85000;BME280;75320;51.608;7.952;2024-03-02T03:44:08;99464.59;;;6.37;75.86
85000;BME280;75320;51.608;7.952;2024-03-02T03:46:33;99460.63;;;6.41;75.40
85000;BME280;75320;51.608;7.952;2024-03-02T03:48:59;99463.34;;;6.47;75.64
85000;BME280;75320;51.608;7.952;2024-03-02T03:51:25;99460.38;;;6.50;75.11
85000;BME280;75320;51.608;7.952;2024-03-02T03:53:50;99437.25;;;6.39;75.23
85000;BME280;75320;51.608;7.952;2024-03-02T03:56:16;99455.47;;;6.47;75.57
85000;BME280;75320;51.608;7.952;2024-03-02T03:58:43;99459.75;;;6.48;74.65
85000;BME280;75320;51.608;7.952;2024-03-02T04:01:09;99432.72;;;6.33;74.88
85000;BME280;75320;51.608;7.952;2024-03-02T04:03:35;99460.28;;;6.44;75.55
85000;BME280;75320;51.608;7.952;2024-03-02T04:06:01;99461.16;;;6.36;75.51
85000;BME280;75320;51.608;7.952;2024-03-02T04:08:26;99468.56;;;6.33;75.40
85000;BME280;75320;51.608;7.952;2024-03-02T04:10:53;99464.78;;;6.50;74.39
85000;BME280;75320;51.608;7.952;2024-03-02T04:13:18;99449.59;;;6.31;74.97
85000;BME280;75320;51.608;7.952;2024-03-02T04:15:43;99469.81;;;6.22;76.01
85000;BME280;75320;51.608;7.952;2024-03-02T04:18:09;99459.56;;;6.12;76.15
85000;BME280;75320;51.608;7.952;2024-03-02T04:20:34;99483.31;;;6.11;76.21
85000;BME280;75320;51.608;7.952;2024-03-02T04:23:00;99487.69;;;5.96;77.66
85000;BME280;75320;51.608;7.952;2024-03-02T04:25:26;99485.50;;;5.77;78.03
85000;BME280;75320;51.608;7.952;2024-03-02T04:27:51;99484.91;;;5.67;78.25
85000;BME280;75320;51.608;7.952;2024-03-02T04:30:16;99488.19;;;5.61;78.47
85000;BME280;75320;51.608;7.952;2024-03-02T04:32:42;99491.56;;;5.47;78.78
85000;BME280;75320;51.608;7.952;2024-03-02T04:35:11;99492.91;;;5.42;79.00
85000;BME280;75320;51.608;7.952;2024-03-02T04:37:36;99485.84;;;5.51;79.47
85000;BME280;75320;51.608;7.952;2024-03-02T04:40:02;99492.66;;;5.60;78.76
85000;BME280;75320;51.608;7.952;2024-03-02T04:42:27;99487.22;;;5.62;78.46
85000;BME280;75320;51.608;7.952;2024-03-02T04:44:52;99487.56;;;5.89;77.94
85000;BME280;75320;51.608;7.952;2024-03-02T04:47:17;99484.31;;;5.87;77.43
85000;BME280;75320;51.608;7.952;2024-03-02T04:49:43;99497.72;;;5.84;78.09
85000;BME280;75320;51.608;7.952;2024-03-02T04:52:08;99491.63;;;5.92;77.81
85000;BME280;75320;51.608;7.952;2024-03-02T04:54:35;99488.22;;;5.83;78.14
85000;BME280;75320;51.608;7.952;2024-03-02T04:57:20;99498.03;;;5.89;78.07
85000;BME280;75320;51.608;7.952;2024-03-02T04:59:46;99502.56;;;5.95;77.72
85000;BME280;75320;51.608;7.952;2024-03-02T05:02:11;99501.41;;;5.98;77.25
85000;BME280;75320;51.608;7.952;2024-03-02T05:04:39;99503.25;;;6.12;77.35
85000;BME280;75320;51.608;7.952;2024-03-02T05:07:04;99506.41;;;6.07;77.78
85000;BME280;75320;51.608;7.952;2024-03-02T05:09:30;99511.34;;;6.02;77.06
85000;BME280;75320;51.608;7.952;2024-03-02T05:11:57;99504.31;;;6.03;77.42
85000;BME280;75320;51.608;7.952;2024-03-02T05:14:48;99501.63;;;6.11;76.91
85000;BME280;75320;51.608;7.952;2024-03-02T05:17:14;99497.22;;;6.11;77.09
85000;BME280;75320;51.608;7.952;2024-03-02T05:19:39;99505.41;;;6.08;77.25
85000;BME280;75320;51.608;7.952;2024-03-02T05:22:05;99507.31;;;6.14;77.08
85000;BME280;75320;51.608;7.952;2024-03-02T05:24:31;99507.91;;;6.25;77.05
85000;BME280;75320;51.608;7.952;2024-03-02T05:26:56;99504.53;;;6.16;76.80
85000;BME280;75320;51.608;7.952;2024-03-02T05:29:22;99514.94;;;6.24;77.61
85000;BME280;75320;51.608;7.952;2024-03-02T05:31:48;99509.31;;;6.27;77.08
85000;BME280;75320;51.608;7.952;2024-03-02T05:34:13;99510.88;;;6.36;76.28
85000;BME280;75320;51.608;7.952;2024-03-02T05:36:38;99505.91;;;6.27;76.33
85000;BME280;75320;51.608;7.952;2024-03-02T05:39:04;99523.06;;;6.29;77.12
85000;BME280;75320;51.608;7.952;2024-03-02T05:41:35;99520.47;;;6.29;77.12
85000;BME280;75320;51.608;7.952;2024-03-02T05:44:00;99522.78;;;6.24;77.33
85000;BME280;75320;51.608;7.952;2024-03-02T05:46:26;99526.56;;;6.22;76.83
85000;BME280;75320;51.608;7.952;2024-03-02T05:48:52;99524.75;;;6.22;77.01
85000;BME280;75320;51.608;7.952;2024-03-02T05:51:17;99533.06;;;6.26;76.99
85000;BME280;75320;51.608;7.952;2024-03-02T05:53:42;99535.56;;;6.19;76.94
85000;BME280;75320;51.608;7.952;2024-03-02T05:56:09;99530.75;;;6.08;77.26
85000;BME280;75320;51.608;7.952;2024-03-02T05:58:35;99539.22;;;6.10;77.20
85000;BME280;75320;51.608;7.952;2024-03-02T06:01:19;99540.22;;;6.09;77.86
85000;BME280;75320;51.608;7.952;2024-03-02T06:03:44;99543.78;;;6.16;76.69
85000;BME280;75320;51.608;7.952;2024-03-02T06:06:10;99541.84;;;6.10;77.16
85000;BME280;75320;51.608;7.952;2024-03-02T06:08:35;99542.84;;;6.09;78.08
85000;BME280;75320;51.608;7.952;2024-03-02T06:11:03;99549.88;;;6.08;77.00
85000;BME280;75320;51.608;7.952;2024-03-02T06:13:28;99542.84;;;6.09;77.01
85000;BME280;75320;51.608;7.952;2024-03-02T06:15:55;99552.09;;;6.19;76.94
85000;BME280;75320;51.608;7.952;2024-03-02T06:18:20;99552.44;;;6.16;76.40
85000;BME280;75320;51.608;7.952;2024-03-02T06:20:46;99549.59;;;6.26;76.34
85000;BME280;75320;51.608;7.952;2024-03-02T06:23:11;99543.41;;;6.42;75.63
85000;BME280;75320;51.608;7.952;2024-03-02T06:25:36;99554.25;;;6.53;75.18
85000;BME280;75320;51.608;7.952;2024-03-02T06:28:02;99546.91;;;6.71;74.89
85000;BME280;75320;51.608;7.952;2024-03-02T06:30:27;99550.59;;;6.77;74.44
85000;BME280;75320;51.608;7.952;2024-03-02T06:32:53;99550.44;;;6.78;74.73
85000;BME280;75320;51.608;7.952;2024-03-02T06:35:19;99546.09;;;6.71;75.16
85000;BME280;75320;51.608;7.952;2024-03-02T06:37:46;99550.50;;;6.70;74.67
85000;BME280;75320;51.608;7.952;2024-03-02T06:40:11;99544.09;;;6.73;74.90
85000;BME280;75320;51.608;7.952;2024-03-02T06:42:36;99557.66;;;6.76;75.21
85000;BME280;75320;51.608;7.952;2024-03-02T06:45:02;99561.03;;;6.85;74.52
85000;BME280;75320;51.608;7.952;2024-03-02T06:47:28;99542.75;;;6.77;74.39
85000;BME280;75320;51.608;7.952;2024-03-02T06:49:53;99551.81;;;6.89;73.73
85000;BME280;75320;51.608;7.952;2024-03-02T06:52:19;99569.69;;;6.85;75.04
85000;BME280;75320;51.608;7.952;2024-03-02T06:54:45;99531.47;;;6.76;74.05
85000;BME280;75320;51.608;7.952;2024-03-02T06:57:12;99553.91;;;6.93;73.51
85000;BME280;75320;51.608;7.952;2024-03-02T06:59:38;99558.22;;;7.01;73.81
85000;BME280;75320;51.608;7.952;2024-03-02T07:02:03;99557.88;;;7.04;73.95
85000;BME280;75320;51.608;7.952;2024-03-02T07:04:28;99559.97;;;7.09;73.96
85000;BME280;75320;51.608;7.952;2024-03-02T07:06:54;99567.09;;;7.15;73.43
85000;BME280;75320;51.608;7.952;2024-03-02T07:09:21;99557.34;;;7.23;73.38
85000;BME280;75320;51.608;7.952;2024-03-02T07:11:48;99561.38;;;7.40;72.75
85000;BME280;75320;51.608;7.952;2024-03-02T07:14:15;99553.75;;;7.60;72.92
85000;BME280;75320;51.608;7.952;2024-03-02T07:16:40;99552.22;;;8.43;71.58
85000;BME280;75320;51.608;7.952;2024-03-02T07:19:06;99546.31;;;9.24;66.83
85000;BME280;75320;51.608;7.952;2024-03-02T07:21:33;99536.31;;;10.21;65.27
85000;BME280;75320;51.608;7.952;2024-03-02T07:23:58;99555.53;;;11.13;62.04
85000;BME280;75320;51.608;7.952;2024-03-02T07:26:24;99550.44;;;11.82;59.76
85000;BME280;75320;51.608;7.952;2024-03-02T07:28:51;99551.78;;;12.29;57.71
85000;BME280;75320;51.608;7.952;2024-03-02T07:31:16;99547.72;;;12.58;56.55
85000;BME280;75320;51.608;7.952;2024-03-02T07:33:46;99546.94;;;12.75;55.30
85000;BME280;75320;51.608;7.952;2024-03-02T07:36:14;99529.50;;;12.18;56.32
85000;BME280;75320;51.608;7.952;2024-03-02T07:38:40;99560.47;;;12.05;58.86
85000;BME280;75320;51.608;7.952;2024-03-02T07:41:06;99565.06;;;11.21;58.99
85000;BME280;75320;51.608;7.952;2024-03-02T07:43:31;99570.38;;;10.55;61.17
85000;BME280;75320;51.608;7.952;2024-03-02T07:45:58;99574.25;;;10.92;61.07
85000;BME280;75320;51.608;7.952;2024-03-02T07:48:25;99575.88;;;10.80;60.57
85000;BME280;75320;51.608;7.952;2024-03-02T07:50:50;99585.63;;;10.73;61.18
85000;BME280;75320;51.608;7.952;2024-03-02T07:53:16;99582.75;;;10.55;61.95
85000;BME280;75320;51.608;7.952;2024-03-02T07:55:41;99586.19;;;10.49;62.32
85000;BME280;75320;51.608;7.952;2024-03-02T07:58:07;99587.63;;;10.51;62.75
85000;BME280;75320;51.608;7.952;2024-03-02T08:00:34;99585.56;;;10.27;62.71
85000;BME280;75320;51.608;7.952;2024-03-02T08:03:01;99587.59;;;10.25;63.50
85000;BME280;75320;51.608;7.952;2024-03-02T08:05:27;99574.63;;;10.24;64.51
85000;BME280;75320;51.608;7.952;2024-03-02T08:07:53;99589.56;;;10.10;63.76
85000;BME280;75320;51.608;7.952;2024-03-02T08:10:18;99592.00;;;10.12;63.94
85000;BME280;75320;51.608;7.952;2024-03-02T08:12:45;99596.81;;;10.01;64.41
85000;BME280;75320;51.608;7.952;2024-03-02T08:15:11;99593.94;;;9.90;64.52
85000;BME280;75320;51.608;7.952;2024-03-02T08:17:38;99593.03;;;10.11;64.55
85000;BME280;75320;51.608;7.952;2024-03-02T08:20:06;99582.63;;;9.89;64.75
85000;BME280;75320;51.608;7.952;2024-03-02T08:22:33;99574.31;;;9.99;64.26
85000;BME280;75320;51.608;7.952;2024-03-02T08:24:58;99590.41;;;10.11;64.35
85000;BME280;75320;51.608;7.952;2024-03-02T08:27:23;99586.91;;;10.10;65.25
85000;BME280;75320;51.608;7.952;2024-03-02T08:29:49;99582.72;;;10.16;64.59
85000;BME280;75320;51.608;7.952;2024-03-02T08:32:14;99572.59;;;10.26;64.39
85000;BME280;75320;51.608;7.952;2024-03-02T08:34:44;99580.28;;;10.27;64.36
85000;BME280;75320;51.608;7.952;2024-03-02T08:37:09;99572.19;;;10.29;64.24
85000;BME280;75320;51.608;7.952;2024-03-02T08:39:34;99578.72;;;10.39;64.25
85000;BME280;75320;51.608;7.952;2024-03-02T08:42:00;99590.25;;;10.45;63.53
85000;BME280;75320;51.608;7.952;2024-03-02T08:44:25;99580.91;;;10.36;63.94
85000;BME280;75320;51.608;7.952;2024-03-02T08:46:51;99592.69;;;10.59;63.91
85000;BME280;75320;51.608;7.952;2024-03-02T08:49:16;99596.53;;;10.57;62.60
85000;BME280;75320;51.608;7.952;2024-03-02T08:51:41;99596.38;;;10.71;63.89
85000;BME280;75320;51.608;7.952;2024-03-02T08:54:06;99604.06;;;10.66;63.98
85000;BME280;75320;51.608;7.952;2024-03-02T08:56:32;99602.44;;;10.72;63.68
85000;BME280;75320;51.608;7.952;2024-03-02T08:58:57;99612.59;;;10.75;64.14
85000;BME280;75320;51.608;7.952;2024-03-02T09:01:23;99614.78;;;10.78;63.32
85000;BME280;75320;51.608;7.952;2024-03-02T09:03:48;99616.44;;;10.79;63.32
85000;BME280;75320;51.608;7.952;2024-03-02T09:06:14;99609.34;;;10.73;63.14
85000;BME280;75320;51.608;7.952;2024-03-02T09:08:41;99612.75;;;10.87;63.01
85000;BME280;75320;51.608;7.952;2024-03-02T09:11:07;99613.78;;;10.99;62.73
85000;BME280;75320;51.608;7.952;2024-03-02T09:13:33;99609.34;;;11.06;62.96
85000;BME280;75320;51.608;7.952;2024-03-02T09:15:58;99585.78;;;10.91;62.00
85000;BME280;75320;51.608;7.952;2024-03-02T09:18:24;99617.81;;;11.27;62.11
85000;BME280;75320;51.608;7.952;2024-03-02T09:20:49;99620.47;;;11.21;62.14
85000;BME280;75320;51.608;7.952;2024-03-02T09:23:14;99620.47;;;11.27;62.85
85000;BME280;75320;51.608;7.952;2024-03-02T09:25:40;99612.16;;;11.11;63.10
85000;BME280;75320;51.608;7.952;2024-03-02T09:28:05;99608.06;;;11.28;62.04
85000;BME280;75320;51.608;7.952;2024-03-02T09:30:32;99606.25;;;11.28;62.89
85000;BME280;75320;51.608;7.952;2024-03-02T09:32:57;99611.28;;;11.36;62.06
85000;BME280;75320;51.608;7.952;2024-03-02T09:35:22;99608.81;;;11.54;61.58
85000;BME280;75320;51.608;7.952;2024-03-02T09:37:48;99594.41;;;11.50;61.65
85000;BME280;75320;51.608;7.952;2024-03-02T09:40:13;99606.19;;;11.54;62.59
85000;BME280;75320;51.608;7.952;2024-03-02T09:42:40;99583.28;;;11.42;61.98
85000;BME280;75320;51.608;7.952;2024-03-02T09:45:06;99598.47;;;11.60;62.54
85000;BME280;75320;51.608;7.952;2024-03-02T09:47:31;99600.25;;;11.66;61.40
85000;BME280;75320;51.608;7.952;2024-03-02T09:49:57;99594.97;;;11.66;61.70
85000;BME280;75320;51.608;7.952;2024-03-02T09:52:23;99577.75;;;11.50;61.86
85000;BME280;75320;51.608;7.952;2024-03-02T09:54:49;99579.75;;;11.68;61.46
85000;BME280;75320;51.608;7.952;2024-03-02T09:57:15;99590.91;;;11.63;61.90
85000;BME280;75320;51.608;7.952;2024-03-02T09:59:40;99591.34;;;11.67;62.78
85000;BME280;75320;51.608;7.952;2024-03-02T10:02:06;99587.97;;;11.91;61.31
85000;BME280;75320;51.608;7.952;2024-03-02T10:04:32;99592.72;;;11.76;61.22
85000;BME280;75320;51.608;7.952;2024-03-02T10:07:15;99580.78;;;12.11;61.11
85000;BME280;75320;51.608;7.952;2024-03-02T10:09:47;99580.00;;;12.35;59.20
85000;BME280;75320;51.608;7.952;2024-03-02T10:12:17;99576.28;;;12.67;58.98
85000;BME280;75320;51.608;7.952;2024-03-02T10:14:43;99582.66;;;12.84;58.01
85000;BME280;75320;51.608;7.952;2024-03-02T10:17:10;99581.22;;;13.13;57.80
85000;BME280;75320;51.608;7.952;2024-03-02T10:19:36;99577.78;;;13.49;56.39
85000;BME280;75320;51.608;7.952;2024-03-02T10:22:04;99573.22;;;13.56;55.97
85000;BME280;75320;51.608;7.952;2024-03-02T10:24:44;99572.34;;;13.92;55.03
85000;BME280;75320;51.608;7.952;2024-03-02T10:27:15;99577.41;;;13.63;56.29
85000;BME280;75320;51.608;7.952;2024-03-02T10:29:40;99585.56;;;13.62;55.83
85000;BME280;75320;51.608;7.952;2024-03-02T10:32:09;99560.88;;;13.98;52.98
85000;BME280;75320;51.608;7.952;2024-03-02T10:34:35;99580.50;;;14.08;54.22
85000;BME280;75320;51.608;7.952;2024-03-02T10:37:01;99576.72;;;14.16;54.86
85000;BME280;75320;51.608;7.952;2024-03-02T10:39:26;99582.59;;;14.47;54.45
85000;BME280;75320;51.608;7.952;2024-03-02T10:41:53;99565.53;;;14.43;53.92
85000;BME280;75320;51.608;7.952;2024-03-02T10:44:20;99582.44;;;14.72;52.53
85000;BME280;75320;51.608;7.952;2024-03-02T10:46:47;99588.22;;;14.39;52.65
85000;BME280;75320;51.608;7.952;2024-03-02T10:49:14;99585.63;;;14.21;53.32
85000;BME280;75320;51.608;7.952;2024-03-02T10:51:39;99574.44;;;14.19;53.59
85000;BME280;75320;51.608;7.952;2024-03-02T10:54:04;99581.41;;;14.02;53.13
85000;BME280;75320;51.608;7.952;2024-03-02T10:56:31;99579.13;;;13.88;53.46
85000;BME280;75320;51.608;7.952;2024-03-02T10:59:03;99576.72;;;13.86;54.20
85000;BME280;75320;51.608;7.952;2024-03-02T11:01:32;99579.84;;;13.65;55.21
85000;BME280;75320;51.608;7.952;2024-03-02T11:03:58;99579.38;;;13.68;54.92
85000;BME280;75320;51.608;7.952;2024-03-02T11:06:26;99578.44;;;13.62;54.14
85000;BME280;75320;51.608;7.952;2024-03-02T11:08:53;99582.13;;;13.61;54.05
85000;BME280;75320;51.608;7.952;2024-03-02T11:11:28;99588.03;;;13.63;54.55
85000;BME280;75320;51.608;7.952;2024-03-02T11:13:56;99581.91;;;13.63;55.38
85000;BME280;75320;51.608;7.952;2024-03-02T11:16:32;99578.16;;;13.52;55.15
85000;BME280;75320;51.608;7.952;2024-03-02T11:19:13;99584.13;;;13.48;56.64
85000;BME280;75320;51.608;7.952;2024-03-02T11:21:40;99578.75;;;13.54;56.33
85000;BME280;75320;51.608;7.952;2024-03-02T11:27:09;99574.75;;;13.45;55.73
85000;BME280;75320;51.608;7.952;2024-03-02T11:32:12;99580.84;;;13.64;56.25
85000;BME280;75320;51.608;7.952;2024-03-02T11:34:42;99569.50;;;13.75;54.86
85000;BME280;75320;51.608;7.952;2024-03-02T11:37:20;99556.81;;;13.65;55.68
85000;BME280;75320;51.608;7.952;2024-03-02T11:39:48;99580.69;;;13.77;54.71
85000;BME280;75320;51.608;7.952;2024-03-02T11:42:14;99572.75;;;13.77;56.07
85000;BME280;75320;51.608;7.952;2024-03-02T11:44:47;99555.75;;;13.66;53.94
85000;BME280;75320;51.608;7.952;2024-03-02T11:47:14;99565.63;;;13.77;54.46
85000;BME280;75320;51.608;7.952;2024-03-02T11:49:49;99559.66;;;13.82;56.82
85000;BME280;75320;51.608;7.952;2024-03-02T11:52:19;99559.81;;;13.87;55.42
85000;BME280;75320;51.608;7.952;2024-03-02T11:54:45;99556.41;;;13.80;55.35
85000;BME280;75320;51.608;7.952;2024-03-02T11:57:19;99555.09;;;13.71;55.68
85000;BME280;75320;51.608;7.952;2024-03-02T11:59:46;99551.47;;;13.83;53.91
85000;BME280;75320;51.608;7.952;2024-03-02T12:02:18;99544.19;;;13.79;55.16
85000;BME280;75320;51.608;7.952;2024-03-02T12:04:44;99555.38;;;13.81;55.81
85000;BME280;75320;51.608;7.952;2024-03-02T12:07:10;99539.56;;;13.74;56.13
85000;BME280;75320;51.608;7.952;2024-03-02T12:09:37;99529.03;;;13.68;55.57
85000;BME280;75320;51.608;7.952;2024-03-02T12:14:33;99545.81;;;13.80;55.81
85000;BME280;75320;51.608;7.952;2024-03-02T12:16:59;99537.56;;;13.88;55.18
85000;BME280;75320;51.608;7.952;2024-03-02T12:19:25;99533.16;;;13.82;56.33
85000;BME280;75320;51.608;7.952;2024-03-02T12:21:52;99536.38;;;13.84;55.88
85000;BME280;75320;51.608;7.952;2024-03-02T12:24:18;99543.81;;;13.94;54.55
85000;BME280;75320;51.608;7.952;2024-03-02T12:26:44;99541.09;;;13.82;56.03
85000;BME280;75320;51.608;7.952;2024-03-02T12:29:10;99549.19;;;13.87;55.66
85000;BME280;75320;51.608;7.952;2024-03-02T12:31:35;99543.47;;;13.72;56.84
85000;BME280;75320;51.608;7.952;2024-03-02T12:34:02;99532.09;;;13.83;54.79
85000;BME280;75320;51.608;7.952;2024-03-02T12:36:29;99532.25;;;13.88;55.77
85000;BME280;75320;51.608;7.952;2024-03-02T12:38:54;99532.56;;;13.80;55.29
85000;BME280;75320;51.608;7.952;2024-03-02T12:41:21;99529.00;;;13.86;55.52
85000;BME280;75320;51.608;7.952;2024-03-02T12:43:46;99531.66;;;13.86;55.31
85000;BME280;75320;51.608;7.952;2024-03-02T12:46:14;99530.75;;;13.92;55.06
85000;BME280;75320;51.608;7.952;2024-03-02T12:48:39;99524.06;;;13.90;55.10
85000;BME280;75320;51.608;7.952;2024-03-02T12:51:06;99513.22;;;13.79;56.34
85000;BME280;75320;51.608;7.952;2024-03-02T12:53:31;99525.47;;;13.92;55.30
85000;BME280;75320;51.608;7.952;2024-03-02T12:55:58;99523.56;;;13.81;55.51
85000;BME280;75320;51.608;7.952;2024-03-02T12:58:23;99516.00;;;13.84;54.10
85000;BME280;75320;51.608;7.952;2024-03-02T13:00:49;99506.88;;;13.80;55.32
85000;BME280;75320;51.608;7.952;2024-03-02T13:03:14;99499.28;;;13.84;56.00
85000;BME280;75320;51.608;7.952;2024-03-02T13:05:40;99513.94;;;13.98;54.90
85000;BME280;75320;51.608;7.952;2024-03-02T13:08:06;99512.25;;;14.04;55.24
85000;BME280;75320;51.608;7.952;2024-03-02T13:10:32;99502.91;;;14.01;54.82
85000;BME280;75320;51.608;7.952;2024-03-02T13:12:58;99513.75;;;14.11;54.76
85000;BME280;75320;51.608;7.952;2024-03-02T13:15:23;99471.88;;;13.90;54.12
85000;BME280;75320;51.608;7.952;2024-03-02T13:17:48;99500.78;;;14.21;53.73